sensor_id;sensor_type;location;lat;lon;timestamp;noise_LAeq;noise_LA_min;noise_LA_max;noise_LA01;noise_LA95
60116;Laerm;62818;49.394;8.686;2023-05-16T00:00:53;70.82;43.14;82.99;;
60116;Laerm;62818;49.394;8.686;2023-05-16T00:01:53;70.71;43.63;82.48;;
60116;Laerm;62818;49.394;8.686;2023-05-16T00:02:54;71.31;43.09;82.75;;
60116;Laerm;62818;49.394;8.686;2023-05-16T00:03:57;71.41;42.98;82.89;;
60116;Laerm;62818;49.394;8.686;2023-05-16T00:04:58;73.00;43.29;83.26;;
60116;Laerm;62818;49.394;8.686;2023-05-16T00:05:59;71.44;43.72;83.00;;
60116;Laerm;62818;49.394;8.686;2023-05-16T00:07:01;71.99;43.39;82.91;;
60116;Laerm;62818;49.394;8.686;2023-05-16T00:08:02;72.47;43.09;82.83;;
60116;Laerm;62818;49.394;8.686;2023-05-16T00:09:03;71.21;43.44;82.45;;
60116;Laerm;62818;49.394;8.686;2023-05-16T00:10:03;71.12;43.86;82.66;;
60116;Laerm;62818;49.394;8.686;2023-05-16T00:11:04;70.59;43.34;82.55;;
60116;Laerm;62818;49.394;8.686;2023-05-16T00:12:05;71.39;43.54;82.69;;
60116;Laerm;62818;49.394;8.686;2023-05-16T00:13:06;71.09;43.54;82.63;;
60116;Laerm;62818;49.394;8.686;2023-05-16T00:14:06;71.46;43.39;82.74;;
60116;Laerm;62818;49.394;8.686;2023-05-16T00:15:09;71.15;43.24;82.79;;
60116;Laerm;62818;49.394;8.686;2023-05-16T00:16:12;72.24;43.29;82.73;;
60116;Laerm;62818;49.394;8.686;2023-05-16T00:17:13;55.54;43.29;77.50;;
60116;Laerm;62818;49.394;8.686;2023-05-16T00:18:17;72.96;43.58;83.16;;
60116;Laerm;62818;49.394;8.686;2023-05-16T00:19:18;73.01;43.44;82.84;;
60116;Laerm;62818;49.394;8.686;2023-05-16T00:20:19;71.52;43.54;82.27;;
60116;Laerm;62818;49.394;8.686;2023-05-16T00:21:23;71.96;44.58;82.56;;
60116;Laerm;62818;49.394;8.686;2023-05-16T00:22:24;71.33;43.54;83.01;;
60116;Laerm;62818;49.394;8.686;2023-05-16T00:23:24;71.71;43.49;83.53;;
60116;Laerm;62818;49.394;8.686;2023-05-16T00:24:25;71.64;43.49;82.98;;
60116;Laerm;62818;49.394;8.686;2023-05-16T00:25:26;71.95;43.39;82.48;;
60116;Laerm;62818;49.394;8.686;2023-05-16T00:26:27;71.50;43.39;82.81;;
60116;Laerm;62818;49.394;8.686;2023-05-16T00:27:27;71.85;43.63;83.57;;
60116;Laerm;62818;49.394;8.686;2023-05-16T00:28:28;71.49;43.49;82.09;;
60116;Laerm;62818;49.394;8.686;2023-05-16T00:29:34;70.92;43.44;82.71;;
60116;Laerm;62818;49.394;8.686;2023-05-16T00:30:34;72.34;43.28;83.03;;
60116;Laerm;62818;49.394;8.686;2023-05-16T00:31:35;71.83;43.99;82.51;;
60116;Laerm;62818;49.394;8.686;2023-05-16T00:32:35;72.29;43.58;83.00;;
60116;Laerm;62818;49.394;8.686;2023-05-16T00:33:36;71.41;43.19;82.78;;
60116;Laerm;62818;49.394;8.686;2023-05-16T00:34:36;71.97;43.24;83.18;;
60116;Laerm;62818;49.394;8.686;2023-05-16T00:35:37;72.05;43.58;82.89;;
60116;Laerm;62818;49.394;8.686;2023-05-16T00:36:37;72.15;43.29;82.46;;
60116;Laerm;62818;49.394;8.686;2023-05-16T00:37:38;71.89;43.34;82.76;;
60116;Laerm;62818;49.394;8.686;2023-05-16T00:38:39;72.37;43.54;82.87;;
60116;Laerm;62818;49.394;8.686;2023-05-16T00:39:39;71.23;43.51;82.60;;
60116;Laerm;62818;49.394;8.686;2023-05-16T00:40:40;72.67;43.54;82.94;;
60116;Laerm;62818;49.394;8.686;2023-05-16T00:41:40;71.49;43.14;82.54;;
60116;Laerm;62818;49.394;8.686;2023-05-16T00:42:41;71.90;43.39;82.64;;
60116;Laerm;62818;49.394;8.686;2023-05-16T00:43:42;72.20;43.39;82.56;;
60116;Laerm;62818;49.394;8.686;2023-05-16T00:44:42;72.28;43.24;83.08;;
60116;Laerm;62818;49.394;8.686;2023-05-16T00:45:43;71.97;44.19;82.29;;
60116;Laerm;62818;49.394;8.686;2023-05-16T00:46:43;72.63;43.77;83.23;;
60116;Laerm;62818;49.394;8.686;2023-05-16T00:47:44;72.61;43.19;82.82;;
60116;Laerm;62818;49.394;8.686;2023-05-16T00:48:45;72.36;43.34;83.03;;
60116;Laerm;62818;49.394;8.686;2023-05-16T00:49:46;72.66;43.81;83.06;;
60116;Laerm;62818;49.394;8.686;2023-05-16T00:50:47;72.68;43.54;82.85;;
60116;Laerm;62818;49.394;8.686;2023-05-16T00:51:48;73.04;43.19;82.84;;
60116;Laerm;62818;49.394;8.686;2023-05-16T00:52:49;71.54;42.98;82.78;;
60116;Laerm;62818;49.394;8.686;2023-05-16T00:53:50;71.14;42.98;82.82;;
60116;Laerm;62818;49.394;8.686;2023-05-16T00:54:51;71.77;43.04;82.57;;
60116;Laerm;62818;49.394;8.686;2023-05-16T00:55:52;72.16;43.34;82.41;;
60116;Laerm;62818;49.394;8.686;2023-05-16T00:56:52;72.44;43.34;82.96;;
60116;Laerm;62818;49.394;8.686;2023-05-16T00:57:53;72.44;43.34;83.08;;
60116;Laerm;62818;49.394;8.686;2023-05-16T00:58:54;72.42;43.34;83.12;;
60116;Laerm;62818;49.394;8.686;2023-05-16T00:59:54;72.24;43.14;82.65;;
60116;Laerm;62818;49.394;8.686;2023-05-16T01:00:55;72.07;43.44;82.59;;
60116;Laerm;62818;49.394;8.686;2023-05-16T01:01:56;72.35;43.39;82.79;;
60116;Laerm;62818;49.394;8.686;2023-05-16T01:02:56;72.81;43.63;83.20;;
60116;Laerm;62818;49.394;8.686;2023-05-16T01:03:57;72.01;43.58;82.51;;
60116;Laerm;62818;49.394;8.686;2023-05-16T01:04:59;72.39;43.54;83.29;;
60116;Laerm;62818;49.394;8.686;2023-05-16T01:06:00;72.15;46.10;82.69;;
60116;Laerm;62818;49.394;8.686;2023-05-16T01:07:01;72.30;43.58;82.84;;
60116;Laerm;62818;49.394;8.686;2023-05-16T01:08:02;71.67;43.34;82.80;;
60116;Laerm;62818;49.394;8.686;2023-05-16T01:09:02;72.73;44.07;82.67;;
60116;Laerm;62818;49.394;8.686;2023-05-16T01:10:05;72.57;43.58;83.01;;
60116;Laerm;62818;49.394;8.686;2023-05-16T01:11:51;71.46;43.34;82.75;;
60116;Laerm;62818;49.394;8.686;2023-05-16T01:15:59;72.00;44.54;82.65;;
60116;Laerm;62818;49.394;8.686;2023-05-16T01:17:28;72.65;43.63;82.63;;
60116;Laerm;62818;49.394;8.686;2023-05-16T01:18:58;72.43;43.39;82.60;;
60116;Laerm;62818;49.394;8.686;2023-05-16T01:21:58;71.53;43.86;82.61;;
60116;Laerm;62818;49.394;8.686;2023-05-16T01:23:35;71.92;43.72;82.56;;
60116;Laerm;62818;49.394;8.686;2023-05-16T01:25:04;72.56;43.72;83.19;;
60116;Laerm;62818;49.394;8.686;2023-05-16T01:26:21;72.40;43.49;82.38;;
60116;Laerm;62818;49.394;8.686;2023-05-16T01:27:23;73.23;43.63;82.55;;
60116;Laerm;62818;49.394;8.686;2023-05-16T01:28:24;73.75;43.63;82.55;;
60116;Laerm;62818;49.394;8.686;2023-05-16T01:29:25;73.50;43.49;82.56;;
60116;Laerm;62818;49.394;8.686;2023-05-16T01:30:32;73.06;43.77;82.73;;
60116;Laerm;62818;49.394;8.686;2023-05-16T01:31:34;73.57;43.14;82.40;;
60116;Laerm;62818;49.394;8.686;2023-05-16T01:32:35;73.35;43.68;83.06;;
60116;Laerm;62818;49.394;8.686;2023-05-16T01:33:35;73.29;43.54;82.51;;
60116;Laerm;62818;49.394;8.686;2023-05-16T01:34:36;72.63;43.39;82.80;;
60116;Laerm;62818;49.394;8.686;2023-05-16T01:35:49;72.93;43.39;82.78;;
60116;Laerm;62818;49.394;8.686;2023-05-16T01:38:27;72.85;43.94;82.26;;
60116;Laerm;62818;49.394;8.686;2023-05-16T01:39:36;73.02;43.72;82.48;;
60116;Laerm;62818;49.394;8.686;2023-05-16T01:41:03;72.37;43.44;83.25;;
60116;Laerm;62818;49.394;8.686;2023-05-16T01:43:16;73.54;43.44;82.16;;
60116;Laerm;62818;49.394;8.686;2023-05-16T01:44:55;71.50;43.14;82.52;;
60116;Laerm;62818;49.394;8.686;2023-05-16T01:46:05;73.27;43.29;82.76;;
60116;Laerm;62818;49.394;8.686;2023-05-16T01:47:13;73.28;43.39;82.44;;
60116;Laerm;62818;49.394;8.686;2023-05-16T01:48:58;71.75;43.39;82.43;;
60116;Laerm;62818;49.394;8.686;2023-05-16T01:50:09;72.76;43.34;82.55;;
60116;Laerm;62818;49.394;8.686;2023-05-16T01:51:11;73.54;43.19;82.38;;
60116;Laerm;62818;49.394;8.686;2023-05-16T01:52:23;73.36;43.54;82.13;;
60116;Laerm;62818;49.394;8.686;2023-05-16T01:53:36;72.81;43.24;82.30;;
60116;Laerm;62818;49.394;8.686;2023-05-16T01:54:44;72.86;43.46;82.68;;
60116;Laerm;62818;49.394;8.686;2023-05-16T01:55:47;73.90;43.54;82.49;;
60116;Laerm;62818;49.394;8.686;2023-05-16T01:56:52;73.59;43.29;83.25;;
60116;Laerm;62818;49.394;8.686;2023-05-16T01:57:54;73.87;43.44;82.75;;
60116;Laerm;62818;49.394;8.686;2023-05-16T01:58:58;73.90;43.44;82.86;;
60116;Laerm;62818;49.394;8.686;2023-05-16T01:59:59;73.70;43.63;82.93;;
60116;Laerm;62818;49.394;8.686;2023-05-16T02:01:04;72.57;43.44;82.74;;
60116;Laerm;62818;49.394;8.686;2023-05-16T02:02:05;73.79;43.24;82.65;;
60116;Laerm;62818;49.394;8.686;2023-05-16T02:03:06;73.45;43.39;82.37;;
60116;Laerm;62818;49.394;8.686;2023-05-16T02:04:07;48.96;43.58;68.75;;
60116;Laerm;62818;49.394;8.686;2023-05-16T02:05:08;73.63;43.72;82.49;;
60116;Laerm;62818;49.394;8.686;2023-05-16T02:06:09;73.39;43.39;82.52;;
60116;Laerm;62818;49.394;8.686;2023-05-16T02:07:10;73.27;43.49;82.67;;
60116;Laerm;62818;49.394;8.686;2023-05-16T02:08:11;73.59;43.72;82.84;;
60116;Laerm;62818;49.394;8.686;2023-05-16T02:09:11;73.10;43.68;82.83;;
60116;Laerm;62818;49.394;8.686;2023-05-16T02:10:12;73.12;44.23;82.64;;
60116;Laerm;62818;49.394;8.686;2023-05-16T02:11:13;73.27;43.58;82.47;;
60116;Laerm;62818;49.394;8.686;2023-05-16T02:12:13;73.24;43.49;82.74;;
60116;Laerm;62818;49.394;8.686;2023-05-16T02:13:14;73.29;43.77;82.53;;
60116;Laerm;62818;49.394;8.686;2023-05-16T02:14:14;73.37;44.03;82.35;;
60116;Laerm;62818;49.394;8.686;2023-05-16T02:15:15;73.31;44.04;82.35;;
60116;Laerm;62818;49.394;8.686;2023-05-16T02:16:15;73.39;43.85;82.62;;
60116;Laerm;62818;49.394;8.686;2023-05-16T02:17:16;72.97;43.63;82.61;;
60116;Laerm;62818;49.394;8.686;2023-05-16T02:18:16;73.41;43.86;82.71;;
60116;Laerm;62818;49.394;8.686;2023-05-16T02:19:18;73.18;43.29;83.20;;
60116;Laerm;62818;49.394;8.686;2023-05-16T02:20:18;73.13;43.99;82.48;;
60116;Laerm;62818;49.394;8.686;2023-05-16T02:21:19;73.06;43.94;82.66;;
60116;Laerm;62818;49.394;8.686;2023-05-16T02:22:19;73.05;43.68;82.09;;
60116;Laerm;62818;49.394;8.686;2023-05-16T02:23:20;72.69;44.03;82.99;;
60116;Laerm;62818;49.394;8.686;2023-05-16T02:24:20;73.06;43.80;82.41;;
60116;Laerm;62818;49.394;8.686;2023-05-16T02:25:21;73.28;44.31;82.84;;
60116;Laerm;62818;49.394;8.686;2023-05-16T02:26:21;73.48;44.90;82.54;;
60116;Laerm;62818;49.394;8.686;2023-05-16T02:27:22;73.11;44.39;82.82;;
60116;Laerm;62818;49.394;8.686;2023-05-16T02:28:22;73.37;44.43;82.67;;
60116;Laerm;62818;49.394;8.686;2023-05-16T02:29:23;73.18;43.80;82.93;;
60116;Laerm;62818;49.394;8.686;2023-05-16T02:30:23;73.27;43.94;82.70;;
60116;Laerm;62818;49.394;8.686;2023-05-16T02:31:29;73.17;43.44;82.56;;
60116;Laerm;62818;49.394;8.686;2023-05-16T02:32:31;73.89;43.49;82.44;;
60116;Laerm;62818;49.394;8.686;2023-05-16T02:33:32;73.40;44.15;82.58;;
60116;Laerm;62818;49.394;8.686;2023-05-16T02:34:33;73.64;44.27;82.35;;
60116;Laerm;62818;49.394;8.686;2023-05-16T02:35:34;73.09;44.97;82.53;;
60116;Laerm;62818;49.394;8.686;2023-05-16T02:36:34;73.15;44.31;82.48;;
60116;Laerm;62818;49.394;8.686;2023-05-16T02:37:36;73.48;44.07;82.54;;
60116;Laerm;62818;49.394;8.686;2023-05-16T02:38:36;73.47;44.11;82.47;;
60116;Laerm;62818;49.394;8.686;2023-05-16T02:39:37;73.41;44.15;82.83;;
60116;Laerm;62818;49.394;8.686;2023-05-16T02:40:37;73.28;43.72;82.26;;
60116;Laerm;62818;49.394;8.686;2023-05-16T02:41:38;73.23;43.72;82.56;;
60116;Laerm;62818;49.394;8.686;2023-05-16T02:42:38;73.38;43.63;82.37;;
60116;Laerm;62818;49.394;8.686;2023-05-16T02:43:39;73.29;43.68;82.58;;
60116;Laerm;62818;49.394;8.686;2023-05-16T02:44:40;73.48;43.81;82.64;;
60116;Laerm;62818;49.394;8.686;2023-05-16T02:45:40;73.23;44.07;82.12;;
60116;Laerm;62818;49.394;8.686;2023-05-16T02:46:41;73.32;43.81;82.30;;
60116;Laerm;62818;49.394;8.686;2023-05-16T02:47:41;73.37;44.11;82.96;;
60116;Laerm;62818;49.394;8.686;2023-05-16T02:48:42;72.91;43.63;82.39;;
60116;Laerm;62818;49.394;8.686;2023-05-16T02:49:42;73.29;44.03;82.19;;
60116;Laerm;62818;49.394;8.686;2023-05-16T02:50:43;73.54;45.11;82.56;;
60116;Laerm;62818;49.394;8.686;2023-05-16T02:51:43;73.46;44.15;82.44;;
60116;Laerm;62818;49.394;8.686;2023-05-16T02:52:44;73.41;44.51;82.70;;
60116;Laerm;62818;49.394;8.686;2023-05-16T02:53:45;73.54;44.43;82.32;;
60116;Laerm;62818;49.394;8.686;2023-05-16T02:54:46;73.52;44.42;82.55;;
60116;Laerm;62818;49.394;8.686;2023-05-16T02:55:46;73.18;44.07;82.53;;
60116;Laerm;62818;49.394;8.686;2023-05-16T02:56:47;73.48;44.31;82.07;;
60116;Laerm;62818;49.394;8.686;2023-05-16T02:57:47;73.40;44.83;82.19;;
60116;Laerm;62818;49.394;8.686;2023-05-16T02:58:49;72.90;44.07;82.10;;
60116;Laerm;62818;49.394;8.686;2023-05-16T02:59:49;73.38;43.99;82.53;;
60116;Laerm;62818;49.394;8.686;2023-05-16T03:00:53;73.16;44.07;82.92;;
60116;Laerm;62818;49.394;8.686;2023-05-16T03:01:53;73.62;44.35;81.90;;
60116;Laerm;62818;49.394;8.686;2023-05-16T03:02:53;73.29;44.80;83.68;;
60116;Laerm;62818;49.394;8.686;2023-05-16T03:03:54;73.18;44.35;82.96;;
60116;Laerm;62818;49.394;8.686;2023-05-16T03:04:55;73.32;44.97;82.56;;
60116;Laerm;62818;49.394;8.686;2023-05-16T03:05:55;73.29;44.11;82.21;;
60116;Laerm;62818;49.394;8.686;2023-05-16T03:06:56;73.37;44.80;82.12;;
60116;Laerm;62818;49.394;8.686;2023-05-16T03:08:00;73.55;44.62;82.73;;
60116;Laerm;62818;49.394;8.686;2023-05-16T03:09:00;73.74;44.35;82.78;;
60116;Laerm;62818;49.394;8.686;2023-05-16T03:10:01;73.10;45.42;82.11;;
60116;Laerm;62818;49.394;8.686;2023-05-16T03:11:01;73.39;44.90;82.23;;
60116;Laerm;62818;49.394;8.686;2023-05-16T03:12:02;73.33;44.80;82.01;;
60116;Laerm;62818;49.394;8.686;2023-05-16T03:13:03;73.25;44.35;82.47;;
60116;Laerm;62818;49.394;8.686;2023-05-16T03:14:03;73.42;44.90;82.46;;
60116;Laerm;62818;49.394;8.686;2023-05-16T03:15:05;72.90;45.07;82.13;;
60116;Laerm;62818;49.394;8.686;2023-05-16T03:16:10;73.56;45.30;82.52;;
60116;Laerm;62818;49.394;8.686;2023-05-16T03:17:11;73.77;44.69;82.62;;
60116;Laerm;62818;49.394;8.686;2023-05-16T03:18:11;73.25;44.27;82.38;;
60116;Laerm;62818;49.394;8.686;2023-05-16T03:19:12;73.35;44.51;82.66;;
60116;Laerm;62818;49.394;8.686;2023-05-16T03:20:16;73.09;44.73;81.94;;
60116;Laerm;62818;49.394;8.686;2023-05-16T03:21:16;73.58;45.01;81.88;;
60116;Laerm;62818;49.394;8.686;2023-05-16T03:22:17;73.24;44.07;82.26;;
60116;Laerm;62818;49.394;8.686;2023-05-16T03:23:21;73.38;45.89;83.65;;
60116;Laerm;62818;49.394;8.686;2023-05-16T03:24:22;73.33;44.94;82.42;;
60116;Laerm;62818;49.394;8.686;2023-05-16T03:25:23;73.30;44.62;82.47;;
60116;Laerm;62818;49.394;8.686;2023-05-16T03:26:24;73.37;44.27;82.26;;
60116;Laerm;62818;49.394;8.686;2023-05-16T03:27:26;73.47;44.65;82.35;;
60116;Laerm;62818;49.394;8.686;2023-05-16T03:28:27;73.61;45.01;83.23;;
60116;Laerm;62818;49.394;8.686;2023-05-16T03:29:27;73.18;45.27;82.93;;
60116;Laerm;62818;49.394;8.686;2023-05-16T03:30:28;73.37;44.65;82.44;;
60116;Laerm;62818;49.394;8.686;2023-05-16T03:31:29;73.57;45.01;83.14;;
60116;Laerm;62818;49.394;8.686;2023-05-16T03:32:32;73.70;44.47;82.57;;
60116;Laerm;62818;49.394;8.686;2023-05-16T03:33:32;73.42;47.00;82.23;;
60116;Laerm;62818;49.394;8.686;2023-05-16T03:34:33;73.14;44.27;81.84;;
60116;Laerm;62818;49.394;8.686;2023-05-16T03:35:35;73.32;44.07;82.31;;
60116;Laerm;62818;49.394;8.686;2023-05-16T03:36:37;73.51;45.23;82.00;;
60116;Laerm;62818;49.394;8.686;2023-05-16T03:37:38;73.83;44.65;82.26;;
60116;Laerm;62818;49.394;8.686;2023-05-16T03:38:38;73.59;44.97;82.52;;
60116;Laerm;62818;49.394;8.686;2023-05-16T03:39:39;73.44;44.11;82.61;;
60116;Laerm;62818;49.394;8.686;2023-05-16T03:40:40;73.32;44.23;81.96;;
60116;Laerm;62818;49.394;8.686;2023-05-16T03:41:40;73.24;44.43;82.46;;
60116;Laerm;62818;49.394;8.686;2023-05-16T03:42:41;73.41;44.97;82.43;;
60116;Laerm;62818;49.394;8.686;2023-05-16T03:43:41;73.46;44.80;82.34;;
60116;Laerm;62818;49.394;8.686;2023-05-16T03:44:42;73.42;45.17;82.68;;
60116;Laerm;62818;49.394;8.686;2023-05-16T03:45:42;73.22;45.01;81.95;;
60116;Laerm;62818;49.394;8.686;2023-05-16T03:46:43;73.22;44.56;82.24;;
60116;Laerm;62818;49.394;8.686;2023-05-16T03:47:44;80.43;45.42;99.82;;
60116;Laerm;62818;49.394;8.686;2023-05-16T03:48:45;73.29;44.90;82.73;;
60116;Laerm;62818;49.394;8.686;2023-05-16T03:49:45;73.24;44.65;81.68;;
60116;Laerm;62818;49.394;8.686;2023-05-16T03:50:46;80.30;44.39;99.85;;
60116;Laerm;62818;49.394;8.686;2023-05-16T03:51:47;73.19;44.27;81.86;;
60116;Laerm;62818;49.394;8.686;2023-05-16T03:52:47;72.97;44.80;81.98;;
60116;Laerm;62818;49.394;8.686;2023-05-16T03:53:48;73.14;44.87;81.96;;
60116;Laerm;62818;49.394;8.686;2023-05-16T03:54:48;73.24;45.14;82.88;;
60116;Laerm;62818;49.394;8.686;2023-05-16T03:55:49;73.02;44.58;82.84;;
60116;Laerm;62818;49.394;8.686;2023-05-16T03:56:49;73.00;44.92;82.21;;
60116;Laerm;62818;49.394;8.686;2023-05-16T03:57:50;73.02;45.57;82.06;;
60116;Laerm;62818;49.394;8.686;2023-05-16T03:58:51;80.31;44.62;100.33;;
60116;Laerm;62818;49.394;8.686;2023-05-16T03:59:52;72.97;45.57;81.82;;
60116;Laerm;62818;49.394;8.686;2023-05-16T04:00:52;81.23;44.51;99.68;;
60116;Laerm;62818;49.394;8.686;2023-05-16T04:01:53;73.05;45.63;82.03;;
60116;Laerm;62818;49.394;8.686;2023-05-16T04:02:53;82.40;47.59;99.94;;
60116;Laerm;62818;49.394;8.686;2023-05-16T04:03:54;73.18;44.76;82.52;;
60116;Laerm;62818;49.394;8.686;2023-05-16T04:04:55;73.44;47.88;82.00;;
60116;Laerm;62818;49.394;8.686;2023-05-16T04:05:56;73.29;48.83;82.04;;
60116;Laerm;62818;49.394;8.686;2023-05-16T04:06:57;73.73;49.55;82.37;;
60116;Laerm;62818;49.394;8.686;2023-05-16T04:07:57;73.41;45.67;82.60;;
60116;Laerm;62818;49.394;8.686;2023-05-16T04:08:58;80.40;44.83;99.93;;
60116;Laerm;62818;49.394;8.686;2023-05-16T04:09:58;79.97;45.86;99.87;;
60116;Laerm;62818;49.394;8.686;2023-05-16T04:10:59;81.10;45.25;99.79;;
60116;Laerm;62818;49.394;8.686;2023-05-16T04:11:59;73.25;45.77;81.95;;
60116;Laerm;62818;49.394;8.686;2023-05-16T04:13:02;73.23;47.52;81.82;;
60116;Laerm;62818;49.394;8.686;2023-05-16T04:14:02;79.50;45.33;99.76;;
60116;Laerm;62818;49.394;8.686;2023-05-16T04:15:04;79.73;44.23;98.94;;
60116;Laerm;62818;49.394;8.686;2023-05-16T04:16:06;73.51;46.05;82.36;;
60116;Laerm;62818;49.394;8.686;2023-05-16T04:17:07;72.78;44.97;82.98;;
60116;Laerm;62818;49.394;8.686;2023-05-16T04:18:08;77.58;45.30;98.59;;
60116;Laerm;62818;49.394;8.686;2023-05-16T04:19:09;79.92;44.94;99.59;;
60116;Laerm;62818;49.394;8.686;2023-05-16T04:20:09;80.95;44.31;99.65;;
60116;Laerm;62818;49.394;8.686;2023-05-16T04:21:11;72.87;45.28;82.28;;
60116;Laerm;62818;49.394;8.686;2023-05-16T04:22:14;73.08;45.33;81.28;;
60116;Laerm;62818;49.394;8.686;2023-05-16T04:23:16;73.39;47.02;82.22;;
60116;Laerm;62818;49.394;8.686;2023-05-16T04:24:17;72.97;44.23;81.80;;
60116;Laerm;62818;49.394;8.686;2023-05-16T04:25:17;73.11;44.47;81.96;;
60116;Laerm;62818;49.394;8.686;2023-05-16T04:26:18;79.62;48.45;99.42;;
60116;Laerm;62818;49.394;8.686;2023-05-16T04:27:21;73.28;45.11;81.90;;
60116;Laerm;62818;49.394;8.686;2023-05-16T04:28:22;77.65;44.73;98.96;;
60116;Laerm;62818;49.394;8.686;2023-05-16T04:29:22;79.75;49.27;99.16;;
60116;Laerm;62818;49.394;8.686;2023-05-16T04:30:23;81.15;48.85;99.30;;
60116;Laerm;62818;49.394;8.686;2023-05-16T04:31:26;72.91;44.83;82.03;;
60116;Laerm;62818;49.394;8.686;2023-05-16T04:32:27;73.55;46.84;82.58;;
60116;Laerm;62818;49.394;8.686;2023-05-16T04:33:28;73.24;45.51;81.81;;
60116;Laerm;62818;49.394;8.686;2023-05-16T04:34:28;73.09;44.62;81.99;;
60116;Laerm;62818;49.394;8.686;2023-05-16T04:35:29;73.29;44.87;82.24;;
60116;Laerm;62818;49.394;8.686;2023-05-16T04:36:30;73.20;46.91;82.17;;
60116;Laerm;62818;49.394;8.686;2023-05-16T04:37:30;73.15;47.42;82.60;;
60116;Laerm;62818;49.394;8.686;2023-05-16T04:38:31;73.32;47.42;83.18;;
60116;Laerm;62818;49.394;8.686;2023-05-16T04:39:33;73.18;46.73;82.99;;
60116;Laerm;62818;49.394;8.686;2023-05-16T04:40:35;73.59;45.11;82.17;;
60116;Laerm;62818;49.394;8.686;2023-05-16T04:41:39;73.62;46.97;82.33;;
60116;Laerm;62818;49.394;8.686;2023-05-16T04:42:40;73.28;45.77;82.80;;
60116;Laerm;62818;49.394;8.686;2023-05-16T04:43:41;73.15;46.97;81.86;;
60116;Laerm;62818;49.394;8.686;2023-05-16T04:44:42;60.88;45.94;80.78;;
60116;Laerm;62818;49.394;8.686;2023-05-16T04:45:43;73.58;48.16;82.61;;
60116;Laerm;62818;49.394;8.686;2023-05-16T04:46:43;82.16;45.77;99.61;;
60116;Laerm;62818;49.394;8.686;2023-05-16T04:47:47;73.32;45.89;82.17;;
60116;Laerm;62818;49.394;8.686;2023-05-16T04:48:50;73.66;48.64;81.73;;
60116;Laerm;62818;49.394;8.686;2023-05-16T04:49:51;73.57;45.96;82.17;;
60116;Laerm;62818;49.394;8.686;2023-05-16T04:50:51;77.78;46.84;99.05;;
60116;Laerm;62818;49.394;8.686;2023-05-16T04:51:52;81.15;50.15;99.42;;
60116;Laerm;62818;49.394;8.686;2023-05-16T04:52:52;73.42;46.87;82.32;;
60116;Laerm;62818;49.394;8.686;2023-05-16T04:53:54;73.46;45.86;82.46;;
60116;Laerm;62818;49.394;8.686;2023-05-16T04:54:54;73.39;50.53;82.11;;
60116;Laerm;62818;49.394;8.686;2023-05-16T04:55:55;82.43;45.72;99.78;;
60116;Laerm;62818;49.394;8.686;2023-05-16T04:56:58;79.56;45.14;99.08;;
60116;Laerm;62818;49.394;8.686;2023-05-16T04:57:59;73.74;47.58;82.37;;
60116;Laerm;62818;49.394;8.686;2023-05-16T04:59:00;82.26;45.77;99.68;;
60116;Laerm;62818;49.394;8.686;2023-05-16T05:00:01;73.34;45.94;81.89;;
60116;Laerm;62818;49.394;8.686;2023-05-16T05:01:01;73.51;52.49;82.30;;
60116;Laerm;62818;49.394;8.686;2023-05-16T05:02:02;73.28;46.13;82.37;;
60116;Laerm;62818;49.394;8.686;2023-05-16T05:03:03;73.22;46.05;82.16;;
60116;Laerm;62818;49.394;8.686;2023-05-16T05:04:04;73.39;46.87;82.86;;
60116;Laerm;62818;49.394;8.686;2023-05-16T05:05:05;81.01;46.82;99.34;;
60116;Laerm;62818;49.394;8.686;2023-05-16T05:06:06;73.51;45.77;82.49;;
60116;Laerm;62818;49.394;8.686;2023-05-16T05:07:07;73.32;46.84;82.58;;
60116;Laerm;62818;49.394;8.686;2023-05-16T05:08:08;80.68;46.80;99.09;;
60116;Laerm;62818;49.394;8.686;2023-05-16T05:09:09;73.27;46.93;81.90;;
60116;Laerm;62818;49.394;8.686;2023-05-16T05:10:09;80.65;46.59;99.06;;
60116;Laerm;62818;49.394;8.686;2023-05-16T05:11:17;73.24;47.81;82.20;;
60116;Laerm;62818;49.394;8.686;2023-05-16T05:12:17;73.17;45.07;81.90;;
60116;Laerm;62818;49.394;8.686;2023-05-16T05:13:18;81.73;48.31;98.89;;
60116;Laerm;62818;49.394;8.686;2023-05-16T05:14:19;72.87;53.51;81.56;;
60116;Laerm;62818;49.394;8.686;2023-05-16T05:15:19;81.78;45.11;99.19;;
60116;Laerm;62818;49.394;8.686;2023-05-16T05:16:20;73.34;47.46;82.14;;
60116;Laerm;62818;49.394;8.686;2023-05-16T05:17:21;73.12;51.55;81.93;;
60116;Laerm;62818;49.394;8.686;2023-05-16T05:18:22;73.66;48.91;81.57;;
60116;Laerm;62818;49.394;8.686;2023-05-16T05:19:23;72.97;47.96;81.80;;
60116;Laerm;62818;49.394;8.686;2023-05-16T05:20:23;73.09;50.17;81.84;;
60116;Laerm;62818;49.394;8.686;2023-05-16T05:21:24;79.22;47.30;98.61;;
60116;Laerm;62818;49.394;8.686;2023-05-16T05:22:24;73.31;47.40;82.01;;
60116;Laerm;62818;49.394;8.686;2023-05-16T05:23:25;73.49;55.25;84.86;;
60116;Laerm;62818;49.394;8.686;2023-05-16T05:24:25;73.25;47.06;82.11;;
60116;Laerm;62818;49.394;8.686;2023-05-16T05:25:26;79.40;46.35;99.19;;
60116;Laerm;62818;49.394;8.686;2023-05-16T05:26:26;73.03;51.55;81.44;;
60116;Laerm;62818;49.394;8.686;2023-05-16T05:27:28;78.96;47.63;98.16;;
60116;Laerm;62818;49.394;8.686;2023-05-16T05:28:28;72.93;45.33;83.08;;
60116;Laerm;62818;49.394;8.686;2023-05-16T05:29:29;81.32;50.92;98.38;;
60116;Laerm;62818;49.394;8.686;2023-05-16T05:30:29;72.56;46.20;81.30;;
60116;Laerm;62818;49.394;8.686;2023-05-16T05:31:30;72.38;50.50;81.45;;
60116;Laerm;62818;49.394;8.686;2023-05-16T05:32:33;72.92;56.27;81.49;;
60116;Laerm;62818;49.394;8.686;2023-05-16T05:33:41;72.68;46.89;82.30;;
60116;Laerm;62818;49.394;8.686;2023-05-16T05:34:41;72.93;49.56;81.52;;
60116;Laerm;62818;49.394;8.686;2023-05-16T05:35:42;72.73;48.83;82.53;;
60116;Laerm;62818;49.394;8.686;2023-05-16T05:36:43;72.93;48.70;82.09;;
60116;Laerm;62818;49.394;8.686;2023-05-16T05:37:43;72.72;46.69;80.98;;
60116;Laerm;62818;49.394;8.686;2023-05-16T05:38:44;80.58;49.07;98.12;;
60116;Laerm;62818;49.394;8.686;2023-05-16T05:39:45;80.23;50.40;98.28;;
60116;Laerm;62818;49.394;8.686;2023-05-16T05:40:45;72.92;48.36;81.47;;
60116;Laerm;62818;49.394;8.686;2023-05-16T05:41:45;72.99;46.69;82.03;;
60116;Laerm;62818;49.394;8.686;2023-05-16T05:42:46;73.29;51.65;81.89;;
60116;Laerm;62818;49.394;8.686;2023-05-16T05:43:46;73.08;49.51;82.04;;
60116;Laerm;62818;49.394;8.686;2023-05-16T05:44:47;73.08;48.42;81.53;;
60116;Laerm;62818;49.394;8.686;2023-05-16T05:45:48;73.37;52.47;82.02;;
60116;Laerm;62818;49.394;8.686;2023-05-16T05:46:49;73.21;48.15;82.35;;
60116;Laerm;62818;49.394;8.686;2023-05-16T05:47:49;81.51;48.23;98.97;;
60116;Laerm;62818;49.394;8.686;2023-05-16T05:48:50;73.47;55.13;83.38;;
60116;Laerm;62818;49.394;8.686;2023-05-16T05:49:51;73.12;48.78;81.87;;
60116;Laerm;62818;49.394;8.686;2023-05-16T05:50:51;73.40;49.14;81.93;;
60116;Laerm;62818;49.394;8.686;2023-05-16T05:51:52;73.52;54.83;81.87;;
60116;Laerm;62818;49.394;8.686;2023-05-16T05:52:54;73.38;46.87;82.35;;
60116;Laerm;62818;49.394;8.686;2023-05-16T05:53:55;73.63;48.12;82.43;;
60116;Laerm;62818;49.394;8.686;2023-05-16T05:54:55;73.28;54.83;82.71;;
60116;Laerm;62818;49.394;8.686;2023-05-16T05:55:59;73.51;48.96;81.92;;